Time;durP1;ratioP1;P1;durP2;ratioP2;P2;SDS_P1;SDS_P2;PMS_P1;PMS_P2;Temp;Humidity;BMP_temperature;BMP_pressure;BME280_temperature;BME280_humidity;BME280_pressure;Samples;Min_cycle;Max_cycle;Signal;HPM_P1;HPM_P2
2022/05/27 00:00:11;;;;;;;4.22;2.00;;;;;;;15.76;57.52;99964.25;1695615;85;20972;-61
2022/05/27 00:02:40;;;;;;;2.33;1.80;;;;;;;15.76;57.52;99958.19;1695340;84;21453;-60
2022/05/27 00:05:09;;;;;;;3.72;1.75;;;;;;;15.78;57.49;99944.13;1695341;85;21011;-60
2022/05/27 00:07:38;;;;;;;5.15;1.90;;;;;;;15.80;57.49;99944.73;1695328;84;21000;-60
2022/05/27 00:10:08;;;;;;;3.40;1.72;;;;;;;15.82;58.01;99943.41;1695421;85;21007;-60
2022/05/27 00:12:37;;;;;;;4.15;1.90;;;;;;;15.84;58.38;99940.40;1695278;85;21035;-61
2022/05/27 00:15:08;;;;;;;4.42;1.50;;;;;;;15.84;58.73;99931.57;1695331;84;21071;-61
2022/05/27 00:17:36;;;;;;;2.25;1.60;;;;;;;15.84;59.14;99953.67;1695336;84;21039;-60
2022/05/27 00:20:06;;;;;;;3.05;1.60;;;;;;;15.84;59.77;99960.58;1695305;84;21019;-60
2022/05/27 00:22:36;;;;;;;4.85;1.60;;;;;;;15.82;59.93;99966.05;1719909;83;21003;-60
2022/05/27 00:25:06;;;;;;;2.92;1.50;;;;;;;15.83;60.23;99962.20;1708973;83;21091;-60
2022/05/27 00:27:34;;;;;;;4.60;1.80;;;;;;;15.83;60.68;99966.34;1722926;83;20987;-60
2022/05/27 00:30:04;;;;;;;2.85;1.60;;;;;;;15.82;60.68;99967.43;1722873;83;21003;-59
2022/05/27 00:32:32;;;;;;;2.70;1.57;;;;;;;15.83;60.51;99964.97;1704859;83;21063;-62
2022/05/27 00:35:02;;;;;;;3.05;1.60;;;;;;;15.80;60.52;99969.59;1695402;85;21459;-60
2022/05/27 00:37:31;;;;;;;4.50;1.60;;;;;;;15.77;60.32;99970.08;1695292;84;21051;-61
2022/05/27 00:40:00;;;;;;;9.10;2.30;;;;;;;15.78;60.69;99973.14;1695422;84;21336;-61
2022/05/27 00:42:29;;;;;;;2.83;1.62;;;;;;;15.76;60.71;99979.45;1695281;85;21026;-62
2022/05/27 00:44:57;;;;;;;2.35;1.55;;;;;;;15.75;60.82;99983.30;1695265;85;21393;-60
2022/05/27 00:47:31;;;;;;;3.25;1.87;;;;;;;15.72;60.53;99984.62;1695440;84;20999;-61
2022/05/27 00:50:01;;;;;;;2.67;1.75;;;;;;;15.72;60.29;99982.39;1695262;85;20991;-60
2022/05/27 00:52:32;;;;;;;2.75;1.72;;;;;;;15.71;60.27;99989.84;1687287;85;21577;-59
2022/05/27 00:55:02;;;;;;;5.40;1.80;;;;;;;15.70;60.28;99988.70;1692045;85;21048;-59
2022/05/27 00:57:38;;;;;;;4.15;1.60;;;;;;;15.69;60.17;99996.69;1691984;85;21003;-60
2022/05/27 01:00:12;;;;;;;2.20;1.57;;;;;;;15.67;60.22;99991.95;1692164;85;20995;-60
2022/05/27 01:02:42;;;;;;;2.47;1.65;;;;;;;15.67;60.16;99994.70;1692191;85;21079;-59
2022/05/27 01:05:12;;;;;;;3.92;1.60;;;;;;;15.66;60.13;99991.65;1692027;85;21024;-60
2022/05/27 01:07:41;;;;;;;1.98;1.60;;;;;;;15.65;60.17;99990.80;1692145;85;21032;-59
2022/05/27 01:10:13;;;;;;;2.25;1.42;;;;;;;15.65;60.21;99986.66;1692073;85;21020;-61
2022/05/27 01:13:05;;;;;;;3.37;1.55;;;;;;;15.65;60.17;99994.11;1692123;85;21023;-59
2022/05/27 01:16:13;;;;;;;2.02;1.37;;;;;;;15.63;60.21;100001.80;1692270;85;20999;-58
2022/05/27 01:22:19;;;;;;;2.75;1.40;;;;;;;15.63;60.31;100011.46;1692198;84;21032;-61
2022/05/27 01:25:13;;;;;;;5.00;1.40;;;;;;;15.62;60.40;100007.02;1692065;85;21062;-60
2022/05/27 01:27:57;;;;;;;2.85;1.62;;;;;;;15.60;60.45;100010.53;1692082;85;21429;-61
2022/05/27 01:30:49;;;;;;;3.58;1.37;;;;;;;15.60;60.50;100011.91;1692218;85;21024;-60
2022/05/27 01:33:32;;;;;;;2.52;1.42;;;;;;;15.62;60.50;100007.02;1692269;85;21055;-60
2022/05/27 01:36:32;;;;;;;6.22;1.32;;;;;;;15.60;60.54;100007.23;1692326;85;21035;-59
2022/05/27 01:39:12;;;;;;;2.33;1.45;;;;;;;15.60;60.71;99998.10;1692175;85;20984;-60
2022/05/27 01:41:49;;;;;;;4.42;1.60;;;;;;;15.55;60.71;99998.25;1692110;85;21393;-60
2022/05/27 01:44:28;;;;;;;3.50;1.50;;;;;;;15.55;60.86;100005.70;1692242;84;21000;-61
2022/05/27 01:46:57;;;;;;;2.02;1.50;;;;;;;15.52;60.96;100013.92;1692143;85;21122;-60
2022/05/27 01:49:36;;;;;;;2.62;1.57;;;;;;;15.50;61.21;100010.55;1692469;85;21019;-60
2022/05/27 01:52:22;;;;;;;1.52;1.20;;;;;;;15.48;61.40;100010.50;1688657;85;21075;-59
2022/05/27 01:55:04;;;;;;;2.33;1.60;;;;;;;15.45;61.49;100014.58;1682601;85;20996;-59
2022/05/27 01:57:41;;;;;;;1.92;1.27;;;;;;;15.43;61.58;100012.59;1682587;85;20982;-60
2022/05/27 02:00:18;;;;;;;3.02;1.30;;;;;;;15.43;61.67;100008.45;1682811;85;20988;-60
2022/05/27 02:03:10;;;;;;;2.30;1.30;;;;;;;15.41;61.88;99998.19;1682740;85;20992;-61
2022/05/27 02:06:13;;;;;;;3.80;1.50;;;;;;;15.37;62.07;100005.80;1682583;85;21024;-60
2022/05/27 02:09:10;;;;;;;1.82;1.32;;;;;;;15.33;62.25;100008.20;1623764;88;21036;-60
2022/05/27 02:11:40;;;;;;;4.75;1.52;;;;;;;15.33;62.31;100011.50;1625189;88;21034;-62
2022/05/27 02:14:28;;;;;;;2.67;1.25;;;;;;;15.33;62.40;100015.10;1656121;87;21004;-62
2022/05/27 02:17:03;;;;;;;2.30;1.40;;;;;;;15.32;62.54;100012.05;1625264;88;21034;-60
2022/05/27 02:19:41;;;;;;;2.70;1.30;;;;;;;15.32;62.64;100016.19;1656118;87;21016;-60
2022/05/27 02:22:13;;;;;;;2.98;1.20;;;;;;;15.31;62.69;100032.44;1655802;86;21029;-60
2022/05/27 02:24:48;;;;;;;3.33;1.10;;;;;;;15.31;62.80;100037.97;1625192;88;21584;-58
2022/05/27 02:27:33;;;;;;;4.12;1.40;;;;;;;15.34;62.84;100047.16;1655845;87;21004;-60
2022/05/27 02:30:05;;;;;;;1.77;1.22;;;;;;;15.33;62.98;100050.99;1682593;85;21000;-60
2022/05/27 02:32:46;;;;;;;3.77;1.35;;;;;;;15.33;63.03;100047.39;1662425;85;21040;-59
2022/05/27 02:35:24;;;;;;;1.87;1.22;;;;;;;15.33;63.08;100050.99;1682495;85;21416;-60
2022/05/27 02:37:56;;;;;;;2.62;1.30;;;;;;;15.32;63.09;100050.69;1661750;85;21459;-59
2022/05/27 02:40:34;;;;;;;3.00;1.40;;;;;;;15.34;63.10;100047.16;1682609;85;20996;-60
2022/05/27 02:43:20;;;;;;;1.55;1.32;;;;;;;15.33;63.17;100050.99;1646514;85;21448;-59
2022/05/27 02:46:17;;;;;;;2.60;1.22;;;;;;;15.32;63.22;100055.38;1682336;85;21040;-61
2022/05/27 02:49:09;;;;;;;6.10;1.62;;;;;;;15.32;63.48;100058.97;1682670;85;21449;-60
2022/05/27 02:52:15;;;;;;;3.90;1.42;;;;;;;15.27;63.47;100045.04;1682414;83;21005;-60
2022/05/27 02:54:52;;;;;;;1.87;0.95;;;;;;;15.23;63.61;100050.19;1675007;84;21044;-60
2022/05/27 02:57:35;;;;;;;3.92;1.02;;;;;;;15.23;63.75;100047.97;1682611;85;21028;-60
2022/05/27 03:00:07;;;;;;;3.17;1.17;;;;;;;15.25;63.78;100051.33;1682552;85;21008;-61
2022/05/27 03:02:36;;;;;;;1.47;1.00;;;;;;;15.25;63.93;100054.09;1682443;85;21385;-60
2022/05/27 03:05:05;;;;;;;2.77;1.20;;;;;;;15.25;63.92;100047.20;1682613;85;20965;-59
2022/05/27 03:07:52;;;;;;;1.95;1.15;;;;;;;15.26;63.96;100054.40;1682671;85;21028;-59
2022/05/27 03:10:51;;;;;;;2.52;1.00;;;;;;;15.30;63.96;100054.22;1680756;85;21048;-60
2022/05/27 03:14:04;;;;;;;2.12;1.07;;;;;;;15.30;64.05;100052.00;1682454;85;21030;-59
2022/05/27 03:17:08;;;;;;;2.05;1.00;;;;;;;15.29;64.13;100063.59;1682478;84;21024;-61
2022/05/27 03:19:57;;;;;;;2.65;1.22;;;;;;;15.30;64.16;100061.13;1682616;84;20988;-58
2022/05/27 03:22:52;;;;;;;1.05;0.82;;;;;;;15.31;64.22;100066.11;1682492;85;20984;-60
2022/05/27 03:25:29;;;;;;;1.07;1.00;;;;;;;15.32;64.30;100074.16;1682432;85;20996;-59
2022/05/27 03:28:18;;;;;;;1.87;1.22;;;;;;;15.33;64.36;100075.83;1682414;85;21012;-60
2022/05/27 03:31:17;;;;;;;4.30;1.20;;;;;;;15.34;64.43;100080.28;1682222;85;20997;-59
2022/05/27 03:34:02;;;;;;;1.22;0.90;;;;;;;15.33;64.49;100079.98;1682356;84;20964;-59
2022/05/27 03:36:55;;;;;;;2.42;1.22;;;;;;;15.34;64.64;100076.14;1682487;85;21024;-60
2022/05/27 03:39:35;;;;;;;2.83;1.20;;;;;;;15.34;64.66;100069.23;1682491;85;20996;-60
2022/05/27 03:42:05;;;;;;;1.10;1.00;;;;;;;15.34;64.72;100073.38;1670306;85;21456;-60
2022/05/27 03:44:34;;;;;;;3.02;1.17;;;;;;;15.35;64.78;100070.92;1682477;85;21000;-60
2022/05/27 03:47:03;;;;;;;1.92;0.93;;;;;;;15.35;64.86;100068.16;1682455;85;21032;-59
2022/05/27 03:49:32;;;;;;;2.02;1.17;;;;;;;15.38;64.90;100062.16;1682484;85;21023;-59
2022/05/27 03:52:14;;;;;;;1.65;1.10;;;;;;;15.42;64.88;100065.28;1683740;84;21555;-60
2022/05/27 03:54:43;;;;;;;2.58;1.10;;;;;;;15.43;64.90;100065.59;1695108;84;21024;-61
2022/05/27 03:57:11;;;;;;;2.80;1.32;;;;;;;15.45;64.91;100064.27;1695400;84;21000;-61
2022/05/27 03:59:40;;;;;;;2.83;1.32;;;;;;;15.46;64.93;100064.58;1695321;85;21035;-64
2022/05/27 04:02:09;;;;;;;1.35;0.95;;;;;;;15.49;64.90;100068.24;1695467;85;21004;-61
2022/05/27 04:04:38;;;;;;;3.55;1.07;;;;;;;15.53;64.81;100065.84;1695365;85;21027;-60
2022/05/27 04:07:07;;;;;;;6.55;1.92;;;;;;;15.54;64.72;100062.00;1695243;84;21000;-60
2022/05/27 04:09:36;;;;;;;2.10;1.20;;;;;;;15.58;64.72;100076.20;1695349;85;20987;-59
2022/05/27 04:12:05;;;;;;;1.95;1.00;;;;;;;15.64;64.65;100072.52;1695327;84;21031;-61
2022/05/27 04:14:34;;;;;;;3.00;1.02;;;;;;;15.73;64.50;100073.84;1695274;85;21000;-60
2022/05/27 04:19:50;;;;;;;4.22;1.30;;;;;;;15.89;63.94;100071.75;1695572;84;21440;-59
2022/05/27 04:22:18;;;;;;;2.45;1.20;;;;;;;15.95;63.66;100074.93;1695624;84;21012;-60
2022/05/27 04:24:48;;;;;;;3.83;1.50;;;;;;;16.03;63.67;100082.86;1695505;85;21016;-59
2022/05/27 04:27:17;;;;;;;3.60;1.17;;;;;;;16.14;63.64;100083.39;1695281;85;21055;-60
2022/05/27 04:29:49;;;;;;;4.25;1.40;;;;;;;16.24;62.78;100086.92;1695274;84;21404;-60
2022/05/27 04:32:18;;;;;;;3.25;1.47;;;;;;;16.34;62.40;100086.34;1695430;84;21474;-60
2022/05/27 04:34:46;;;;;;;4.20;1.50;;;;;;;16.38;62.27;100075.09;1695244;85;21020;-62
2022/05/27 04:37:15;;;;;;;5.00;1.65;;;;;;;16.40;62.03;100072.38;1695381;85;21495;-59
2022/05/27 04:39:44;;;;;;;3.95;1.57;;;;;;;16.41;61.73;100079.59;1695290;84;20992;-60
2022/05/27 04:42:14;;;;;;;3.55;1.42;;;;;;;16.38;61.64;100088.37;1695408;85;21067;-61
2022/05/27 04:44:43;;;;;;;3.52;1.20;;;;;;;16.35;61.67;100090.78;1695335;85;21472;-59
2022/05/27 04:47:11;;;;;;;1.95;1.40;;;;;;;16.32;61.47;100082.43;1695362;85;20992;-60
2022/05/27 04:49:51;;;;;;;1.62;1.32;;;;;;;16.30;61.47;100088.75;1694814;85;21008;-60
2022/05/27 04:52:31;;;;;;;2.92;1.25;;;;;;;16.29;61.57;100082.08;1695225;83;21000;-60
2022/05/27 04:55:02;;;;;;;5.85;1.82;;;;;;;16.33;61.67;100087.42;1695324;85;21436;-62
2022/05/27 04:57:34;;;;;;;7.30;1.77;;;;;;;16.39;61.85;100084.52;1695353;85;20992;-60
2022/05/27 05:00:10;;;;;;;4.12;1.72;;;;;;;16.52;61.42;100091.70;1695497;85;21023;-60
2022/05/27 05:02:42;;;;;;;2.45;1.60;;;;;;;16.69;61.29;100092.66;1695419;84;20995;-59
2022/05/27 05:05:16;;;;;;;5.95;1.80;;;;;;;16.87;60.76;100097.16;1695381;85;20996;-60
2022/05/27 05:07:48;;;;;;;6.75;2.40;;;;;;;16.93;60.37;100093.98;1695412;84;21055;-60
2022/05/27 05:10:19;;;;;;;2.75;1.65;;;;;;;16.88;60.24;100090.54;1695222;84;21083;-60
2022/05/27 05:12:49;;;;;;;3.20;1.55;;;;;;;16.82;60.25;100095.67;1695383;84;21003;-60
2022/05/27 05:15:19;;;;;;;3.87;1.85;;;;;;;16.74;60.15;100095.52;1716859;83;21011;-63
2022/05/27 05:17:47;;;;;;;3.10;1.47;;;;;;;16.69;60.36;100092.66;1722645;83;21047;-61
2022/05/27 05:20:18;;;;;;;3.55;1.65;;;;;;;16.70;60.46;100088.80;1722857;83;21372;-61
2022/05/27 05:22:47;;;;;;;5.97;1.60;;;;;;;16.71;60.56;100096.02;1722946;83;21424;-60
2022/05/27 05:25:15;;;;;;;2.65;1.52;;;;;;;16.75;60.35;100093.59;1723009;83;21392;-59
2022/05/27 05:27:45;;;;;;;6.37;1.62;;;;;;;16.83;60.24;100090.44;1723010;83;21439;-60
2022/05/27 05:30:16;;;;;;;2.08;1.30;;;;;;;17.04;59.34;100086.17;1723010;83;20983;-60
2022/05/27 05:32:46;;;;;;;3.67;1.42;;;;;;;17.29;58.58;100087.18;1663242;86;21079;-59
2022/05/27 05:35:15;;;;;;;3.08;1.40;;;;;;;17.43;57.56;100088.55;1663289;86;21019;-60
2022/05/27 05:37:44;;;;;;;4.17;1.55;;;;;;;17.57;57.55;100083.00;1663176;86;21043;-60
2022/05/27 05:40:13;;;;;;;2.40;1.87;;;;;;;17.68;56.88;100083.50;1663209;86;21145;-60
2022/05/27 05:42:41;;;;;;;4.03;1.42;;;;;;;17.73;56.78;100081.35;1663249;86;21093;-61
2022/05/27 05:45:12;;;;;;;3.95;1.80;;;;;;;17.73;56.27;100083.58;1663141;86;21015;-60
2022/05/27 05:47:41;;;;;;;1.67;1.30;;;;;;;17.66;56.29;100091.22;1663368;86;21110;-60
2022/05/27 05:50:12;;;;;;;4.80;1.50;;;;;;;17.60;56.26;100080.27;1674569;83;20983;-61
2022/05/27 05:52:42;;;;;;;3.33;1.20;;;;;;;17.52;54.96;100085.66;1660532;85;21083;-60
2022/05/27 05:55:12;;;;;;;2.45;1.20;;;;;;;17.40;54.92;100088.50;1641674;87;21078;-60
2022/05/27 05:57:43;;;;;;;1.92;1.15;;;;;;;17.33;55.03;100081.44;1641605;87;21472;-61
2022/05/27 06:00:16;;;;;;;4.20;1.70;;;;;;;17.30;55.15;100078.63;1641670;87;20985;-62
2022/05/27 06:02:45;;;;;;;3.85;1.40;;;;;;;17.30;55.49;100088.31;1641667;87;21036;-63
2022/05/27 06:05:14;;;;;;;3.02;1.60;;;;;;;17.32;55.39;100083.91;1641652;87;21436;-61
2022/05/27 06:07:45;;;;;;;4.58;1.17;;;;;;;17.28;55.21;100082.73;1641653;87;21102;-61
2022/05/27 06:10:16;;;;;;;4.08;1.05;;;;;;;17.26;55.17;100074.67;1652286;85;21452;-60
2022/05/27 06:12:44;;;;;;;3.40;1.40;;;;;;;17.28;55.15;100065.58;1687836;85;21000;-61
2022/05/27 06:15:20;;;;;;;3.45;1.12;;;;;;;17.41;54.32;100067.18;1687913;85;21428;-61
2022/05/27 06:17:50;;;;;;;3.83;1.30;;;;;;;17.58;54.08;100061.13;1615499;88;21016;-62
2022/05/27 06:20:19;;;;;;;4.95;1.50;;;;;;;17.78;53.38;100062.58;1615388;89;21059;-61
2022/05/27 06:22:47;;;;;;;3.60;1.30;;;;;;;17.99;52.78;100060.41;1615439;89;21606;-60
2022/05/27 06:25:18;;;;;;;2.98;1.25;;;;;;;18.18;52.15;100059.57;1615468;89;21088;-60
2022/05/27 06:27:47;;;;;;;3.47;1.20;;;;;;;18.26;51.65;100060.55;1615444;89;21448;-60
2022/05/27 06:37:21;;;;;;;3.62;1.17;;;;;;;18.30;50.76;100060.33;1687819;85;21020;-60
2022/05/27 06:39:50;;;;;;;6.70;1.27;;;;;;;18.46;50.65;100060.81;1688002;85;21460;-60
2022/05/27 06:42:19;;;;;;;4.03;1.30;;;;;;;18.74;50.27;100057.03;1687997;84;21016;-60
2022/05/27 06:44:51;;;;;;;4.47;1.65;;;;;;;19.01;48.72;100066.80;1686205;84;20976;-60
2022/05/27 06:47:21;;;;;;;5.45;1.30;;;;;;;19.13;48.10;100061.92;1687903;85;20971;-62
2022/05/27 06:49:50;;;;;;;3.02;1.10;;;;;;;19.14;47.84;100051.66;1687798;84;21004;-59
2022/05/27 06:52:19;;;;;;;2.77;1.25;;;;;;;19.15;47.39;100055.55;1687853;85;21071;-61
2022/05/27 06:54:49;;;;;;;4.15;1.10;;;;;;;19.23;47.61;100044.52;1709771;83;21032;-62
2022/05/27 06:57:18;;;;;;;6.00;1.80;;;;;;;19.49;48.19;100046.42;1712970;84;20956;-60
2022/05/27 06:59:47;;;;;;;2.70;1.10;;;;;;;19.86;47.03;100038.70;1712922;84;21004;-60
2022/05/27 07:02:16;;;;;;;3.12;1.20;;;;;;;20.26;45.89;100040.36;1712866;84;20960;-60
2022/05/27 07:04:45;;;;;;;4.67;1.05;;;;;;;20.61;44.88;100032.48;1712903;84;21010;-60
2022/05/27 07:07:14;;;;;;;4.12;1.40;;;;;;;20.99;43.83;100027.05;1712973;84;21409;-61
2022/05/27 07:09:42;;;;;;;4.78;1.72;;;;;;;21.29;43.22;100018.75;1712963;84;20992;-61
2022/05/27 07:12:13;;;;;;;5.37;1.20;;;;;;;21.62;42.43;100019.34;1712883;84;21004;-61
2022/05/27 07:14:42;;;;;;;3.05;1.52;;;;;;;21.95;41.94;100006.18;1712882;84;21000;-60
2022/05/27 07:17:11;;;;;;;4.00;1.30;;;;;;;22.22;40.95;100011.47;1712914;84;21012;-61
2022/05/27 07:19:39;;;;;;;3.90;1.30;;;;;;;22.37;40.53;100009.18;1713266;84;20976;-63
2022/05/27 07:22:09;;;;;;;2.37;1.20;;;;;;;22.58;39.80;100001.55;1712981;83;21437;-59
2022/05/27 07:24:39;;;;;;;5.90;1.42;;;;;;;22.81;39.67;100003.72;1713095;83;21400;-61
2022/05/27 07:27:07;;;;;;;4.60;1.87;;;;;;;23.04;38.88;100000.78;1712896;84;20992;-63
2022/05/27 07:29:36;;;;;;;4.80;1.00;;;;;;;23.05;36.82;100001.89;1712964;84;21381;-60
2022/05/27 07:32:04;;;;;;;4.53;1.15;;;;;;;23.00;37.50;99992.14;1713016;84;21000;-62
2022/05/27 07:34:34;;;;;;;2.15;1.10;;;;;;;23.06;36.96;99995.73;1713073;84;21443;-61
2022/05/27 07:37:03;;;;;;;2.35;1.30;;;;;;;22.94;36.69;100001.69;1712982;83;20984;-60
2022/05/27 07:39:31;;;;;;;3.37;1.20;;;;;;;22.64;37.05;99993.42;1712962;84;20984;-60
2022/05/27 07:42:02;;;;;;;4.15;1.52;;;;;;;22.48;36.88;99993.22;1712858;84;21079;-59
2022/05/27 07:44:31;;;;;;;7.67;1.50;;;;;;;22.45;36.04;99986.25;1712949;84;20960;-60
2022/05/27 07:47:00;;;;;;;6.10;3.58;;;;;;;22.51;36.76;99992.65;1712906;83;20985;-60
2022/05/27 07:49:28;;;;;;;3.70;1.20;;;;;;;22.75;36.78;99988.05;1712927;84;20985;-60
2022/05/27 07:51:59;;;;;;;5.55;2.05;;;;;;;22.97;36.21;99992.72;1692926;83;21586;-61
2022/05/27 07:54:27;;;;;;;4.05;1.50;;;;;;;23.05;36.02;99996.86;1693160;83;21104;-59
2022/05/27 07:56:56;;;;;;;3.50;1.30;;;;;;;23.18;35.92;99989.78;1647532;86;21064;-61
2022/05/27 07:59:24;;;;;;;2.37;0.90;;;;;;;23.21;35.51;99981.64;1653029;86;21004;-60
2022/05/27 08:01:54;;;;;;;4.35;1.10;;;;;;;23.30;34.50;99981.86;1659853;86;21079;-60
2022/05/27 08:04:23;;;;;;;3.02;1.10;;;;;;;23.38;34.24;99972.28;1637608;86;21048;-61
2022/05/27 08:06:52;;;;;;;4.15;1.40;;;;;;;23.57;33.76;99977.20;1635286;87;21004;-59
2022/05/27 08:09:21;;;;;;;4.33;0.90;;;;;;;23.78;33.30;99983.44;1635456;88;21007;-60
2022/05/27 08:11:49;;;;;;;2.05;1.12;;;;;;;23.85;33.25;99981.95;1653562;86;21060;-62
2022/05/27 08:14:19;;;;;;;4.72;1.30;;;;;;;23.91;33.37;99973.78;1659851;86;21037;-60
2022/05/27 08:16:47;;;;;;;2.05;1.02;;;;;;;24.05;33.64;99983.70;1673078;86;21027;-58
2022/05/27 08:19:17;;;;;;;2.70;1.10;;;;;;;24.21;33.12;99965.63;1653836;86;21016;-60
2022/05/27 08:21:46;;;;;;;2.67;1.17;;;;;;;24.26;33.12;99961.92;1663946;86;21077;-60
2022/05/27 08:24:16;;;;;;;3.60;1.17;;;;;;;24.51;33.03;99966.39;1605475;89;21415;-59
2022/05/27 08:26:46;;;;;;;3.87;1.00;;;;;;;24.78;31.40;99983.41;1605601;89;21150;-60
2022/05/27 08:29:15;;;;;;;2.95;1.10;;;;;;;24.78;30.44;99976.41;1602498;89;21076;-60
2022/05/27 08:31:45;;;;;;;3.85;1.20;;;;;;;24.77;30.94;99965.50;1600619;90;21068;-60
2022/05/27 08:39:47;;;;;;;3.27;0.90;;;;;;;24.26;31.42;99959.95;1600735;90;21452;-59
2022/05/27 08:42:33;;;;;;;2.40;0.90;;;;;;;23.94;31.65;99955.56;1625620;86;21020;-60
2022/05/27 08:45:15;;;;;;;6.42;1.17;;;;;;;23.79;32.11;99951.53;1649750;86;21012;-61
2022/05/27 08:47:56;;;;;;;3.58;1.15;;;;;;;23.76;32.09;99953.52;1658899;86;20996;-61
2022/05/27 08:50:44;;;;;;;10.95;1.32;;;;;;;23.77;32.64;99945.39;1658893;86;21071;-60
2022/05/27 08:53:20;;;;;;;7.45;1.17;;;;;;;23.82;32.70;99943.38;1658732;86;21051;-58
2022/05/27 09:01:36;;;;;;;2.20;0.82;;;;;;;23.67;32.43;99963.13;1663986;86;20994;-61
2022/05/27 09:04:19;;;;;;;4.00;1.30;;;;;;;23.51;32.44;99954.58;1637858;86;21472;-60
2022/05/27 09:06:56;;;;;;;3.62;1.20;;;;;;;23.41;32.84;99958.30;1664120;86;21011;-60
2022/05/27 09:09:28;;;;;;;4.05;1.20;;;;;;;23.37;32.59;99952.44;1663918;86;20988;-61
2022/05/27 09:12:25;;;;;;;4.00;1.32;;;;;;;23.32;32.86;99950.25;1663988;86;21024;-60
2022/05/27 09:15:02;;;;;;;2.33;1.02;;;;;;;23.24;33.05;99942.48;1664051;86;21015;-59
2022/05/27 09:17:42;;;;;;;10.95;2.27;;;;;;;23.19;33.20;99950.92;1663939;86;21016;-61
2022/05/27 09:20:37;;;;;;;2.83;1.10;;;;;;;23.06;33.60;99940.68;1636074;86;21444;-61
2022/05/27 09:23:41;;;;;;;4.65;1.07;;;;;;;23.05;34.06;99946.00;1663946;86;21142;-61
2022/05/27 09:26:37;;;;;;;4.37;1.50;;;;;;;23.20;33.67;99935.25;1650721;86;21036;-61
2022/05/27 09:29:23;;;;;;;3.50;1.17;;;;;;;23.37;33.03;99942.64;1662144;86;21028;-60
2022/05/27 09:32:00;;;;;;;4.78;1.45;;;;;;;23.40;33.18;99933.67;1632400;88;21473;-60
2022/05/27 09:34:30;;;;;;;3.30;1.15;;;;;;;23.43;32.86;99924.45;1649577;87;21455;-60
2022/05/27 09:37:02;;;;;;;2.72;1.00;;;;;;;23.37;33.50;99920.28;1632232;87;21462;-60
2022/05/27 09:39:32;;;;;;;2.60;1.10;;;;;;;23.44;33.21;99935.91;1649870;87;21003;-60
2022/05/27 09:42:30;;;;;;;3.50;1.05;;;;;;;23.48;32.63;99930.00;1606890;88;21092;-60
2022/05/27 09:44:58;;;;;;;5.37;1.20;;;;;;;23.47;32.80;99922.73;1648223;86;20995;-61
2022/05/27 09:47:32;;;;;;;5.85;1.55;;;;;;;23.36;32.70;99917.78;1662458;86;21513;-60
2022/05/27 09:50:09;;;;;;;4.55;1.10;;;;;;;23.20;32.78;99918.48;1664040;86;21414;-60
2022/05/27 09:52:40;;;;;;;3.25;1.02;;;;;;;23.09;32.92;99915.50;1663247;86;21473;-61
2022/05/27 09:55:25;;;;;;;2.60;1.25;;;;;;;23.01;33.20;99912.77;1667120;86;21024;-61
2022/05/27 09:58:00;;;;;;;3.08;1.17;;;;;;;22.98;33.65;99907.77;1626855;87;21040;-60
2022/05/27 10:00:49;;;;;;;4.25;1.12;;;;;;;23.06;33.60;99894.56;1659183;86;21382;-61
2022/05/27 10:03:34;;;;;;;5.70;1.30;;;;;;;23.15;33.43;99899.52;1664287;86;21009;-61
2022/05/27 10:06:17;;;;;;;5.08;1.30;;;;;;;23.15;33.50;99907.34;1657931;86;21417;-59
2022/05/27 10:08:56;;;;;;;5.78;1.22;;;;;;;23.20;33.79;99886.34;1667567;86;21029;-60
2022/05/27 10:11:32;;;;;;;2.02;1.15;;;;;;;23.24;33.73;99889.38;1657932;86;21013;-58
2022/05/27 10:14:22;;;;;;;4.37;1.10;;;;;;;23.29;33.47;99878.15;1664968;86;21064;-60
2022/05/27 10:17:09;;;;;;;2.75;1.25;;;;;;;23.30;33.57;99871.42;1657848;86;21029;-59
2022/05/27 10:19:42;;;;;;;4.17;1.32;;;;;;;23.30;33.01;99878.42;1667102;86;21025;-59
2022/05/27 10:22:26;;;;;;;2.17;1.20;;;;;;;23.03;33.49;99883.14;1657842;86;21005;-59
2022/05/27 10:25:07;;;;;;;4.40;1.27;;;;;;;22.87;33.74;99876.84;1667472;86;21377;-59
2022/05/27 10:27:44;;;;;;;3.33;1.10;;;;;;;22.84;33.39;99873.24;1657945;86;21029;-58
2022/05/27 10:30:27;;;;;;;3.62;0.88;;;;;;;22.85;33.47;99866.52;1665955;86;21022;-60
2022/05/27 10:33:17;;;;;;;4.10;1.85;;;;;;;22.86;33.66;99862.61;1657971;86;21057;-60
2022/05/27 10:35:47;;;;;;;5.40;1.20;;;;;;;22.85;33.66;99858.70;1667386;86;21020;-60
2022/05/27 10:38:47;;;;;;;1.60;1.00;;;;;;;22.87;34.03;99860.08;1657921;86;21386;-60
2022/05/27 10:41:52;;;;;;;3.75;1.37;;;;;;;22.89;34.08;99865.38;1657634;86;21029;-59
2022/05/27 10:44:42;;;;;;;3.50;1.17;;;;;;;22.84;34.21;99869.05;1667573;86;21449;-59
2022/05/27 10:47:50;;;;;;;3.75;1.20;;;;;;;22.69;34.74;99858.77;1657830;86;21013;-58
2022/05/27 10:50:24;;;;;;;2.58;1.20;;;;;;;22.63;34.69;99856.30;1667757;86;20993;-57
2022/05/27 10:53:36;;;;;;;4.17;1.32;;;;;;;22.55;34.64;99854.96;1657865;86;21068;-60
2022/05/27 10:56:29;;;;;;;4.35;1.22;;;;;;;22.39;34.50;99854.23;1684884;84;21082;-58
2022/05/27 11:02:43;;;;;;;4.62;1.90;;;;;;;22.29;35.16;99846.48;1636450;85;21404;-59
2022/05/27 11:05:36;;;;;;;2.60;1.25;;;;;;;22.30;35.49;99855.14;1687894;85;21480;-59
2022/05/27 11:08:10;;;;;;;2.10;1.20;;;;;;;22.36;35.30;99845.61;1687842;85;21440;-60
2022/05/27 11:10:51;;;;;;;5.08;1.40;;;;;;;22.35;35.52;99841.98;1687955;85;20999;-58
2022/05/27 11:17:03;;;;;;;2.40;1.25;;;;;;;22.26;35.73;99841.48;1688023;85;21047;-58
2022/05/27 11:20:07;;;;;;;2.77;1.20;;;;;;;22.23;35.79;99835.08;1688233;85;20987;-58
2022/05/27 11:22:50;;;;;;;3.58;1.42;;;;;;;22.18;35.83;99833.16;1687994;85;21424;-59
2022/05/27 11:25:36;;;;;;;2.33;1.10;;;;;;;22.15;35.88;99825.36;1688063;85;21008;-59
2022/05/27 11:28:37;;;;;;;2.62;1.70;;;;;;;22.11;36.13;99830.69;1681550;85;21032;-59
2022/05/27 11:31:21;;;;;;;4.20;1.70;;;;;;;22.15;36.06;99816.98;1687768;85;21036;-59
2022/05/27 11:34:16;;;;;;;3.62;2.10;;;;;;;22.15;36.33;99811.41;1688098;85;21056;-58
2022/05/27 11:37:22;;;;;;;4.33;1.80;;;;;;;22.18;36.29;99808.04;1688006;85;20984;-58
2022/05/27 11:40:08;;;;;;;5.72;1.70;;;;;;;22.22;36.49;99802.72;1687955;85;21404;-59
2022/05/27 11:43:14;;;;;;;2.90;1.47;;;;;;;22.28;36.70;99788.44;1688088;85;21431;-58
2022/05/27 11:46:06;;;;;;;3.85;1.67;;;;;;;22.33;36.68;99791.19;1687926;85;21553;-60
2022/05/27 11:48:58;;;;;;;5.12;1.42;;;;;;;22.40;36.52;99788.91;1661744;85;20992;-58
2022/05/27 11:51:41;;;;;;;5.78;1.90;;;;;;;22.45;36.69;99783.28;1665274;85;21461;-59
2022/05/27 11:54:49;;;;;;;4.20;1.55;;;;;;;22.55;36.70;99775.38;1683237;85;21020;-57
2022/05/27 11:57:44;;;;;;;3.37;1.62;;;;;;;22.69;36.70;99768.00;1666693;86;21009;-58
2022/05/27 12:00:18;;;;;;;4.03;1.70;;;;;;;22.82;36.90;99773.53;1667412;86;21028;-58
2022/05/27 12:03:11;;;;;;;3.27;1.42;;;;;;;22.90;36.40;99763.11;1663714;86;21024;-58
2022/05/27 12:05:51;;;;;;;4.15;1.50;;;;;;;22.90;36.07;99771.50;1657657;86;21433;-58
2022/05/27 12:09:09;;;;;;;2.33;1.57;;;;;;;22.85;35.89;99774.91;1657772;86;21000;-58
2022/05/27 12:11:42;;;;;;;3.30;1.50;;;;;;;22.82;35.98;99762.36;1657650;86;21028;-61
2022/05/27 12:14:37;;;;;;;5.78;1.57;;;;;;;22.78;36.04;99752.30;1657739;86;21008;-59
2022/05/27 12:17:09;;;;;;;5.20;1.70;;;;;;;22.73;36.20;99748.69;1657787;86;21019;-58
2022/05/27 12:19:41;;;;;;;6.05;1.60;;;;;;;22.68;36.68;99750.14;1657587;86;21012;-60
2022/05/27 12:22:20;;;;;;;5.55;2.12;;;;;;;22.67;36.60;99745.68;1666866;85;21044;-58
2022/05/27 12:24:56;;;;;;;4.70;1.70;;;;;;;22.60;36.64;99750.77;1640362;86;21036;-60
2022/05/27 12:27:25;;;;;;;7.62;3.00;;;;;;;22.55;36.63;99736.30;1640066;86;21481;-58
2022/05/27 12:29:53;;;;;;;2.70;1.60;;;;;;;22.57;36.80;99728.45;1667452;86;21032;-60
2022/05/27 12:32:25;;;;;;;3.02;1.40;;;;;;;22.61;37.08;99735.69;1667699;86;21048;-58
2022/05/27 12:35:13;;;;;;;6.05;1.72;;;;;;;22.65;37.09;99722.80;1667448;86;21000;-60
2022/05/27 12:37:53;;;;;;;3.12;1.30;;;;;;;22.70;37.17;99708.78;1644632;86;21056;-59
2022/05/27 12:40:32;;;;;;;3.42;1.70;;;;;;;22.74;37.00;99712.66;1657146;86;21482;-58
2022/05/27 12:43:13;;;;;;;2.85;1.52;;;;;;;22.76;36.97;99708.47;1667546;86;21001;-59
2022/05/27 12:46:01;;;;;;;4.50;1.30;;;;;;;22.81;37.12;99703.42;1640596;86;21045;-62